Latest Coastal Weather Observations for Barrow Island

IDW60701

Issued at 5:29 pm WST Wednesday 1 April 2015 (issued every 10 minutes, with the page automatically refreshed every 10 minutes)

About coastal observations | Map of coastal stations | Coastal observations for WA | Marine services | Other Formats
Station Details ID: 005094 Name: BARROW ISLAND AIRPORT Lat: -20.88 Lon: 115.41 Height: 6.4 m
Data from the previous 72 hours. | See also: Recent months at Barrow Island
Date/Time
WST
Temp

°C
Wind Pressure Rain
since 9am
mm
Weather Cloud Vis
km
Sea
Height
m
Swell
Dir
 
Speed
knots
Gust
knots
hPa Trend Height
m
Period
s
Dir
01/05:00pm 29.9 WSW 10 13 1010.6 - 0.0 - - - - - - -
01/04:30pm 29.9 SW 9 11 1010.6 - 0.0 - - - - - - -
01/04:00pm 30.5 SW 9 11 1010.6 - 0.0 - - - - - - -
01/03:30pm 30.0 SSW 8 10 1010.9 - 0.0 - - - - - - -
01/03:00pm 29.9 SSW 6 7 1011.1 - 0.0 - - - - - - -
01/02:30pm 29.5 S 7 9 1011.3 - 0.0 - - - - - - -
01/02:00pm 29.8 SSW 8 10 1011.7 - 0.0 - - - - - - -
01/01:30pm 30.4 SSW 8 9 1012.1 - 0.0 - - - - - - -
01/01:00pm 29.8 S 7 9 1012.6 - 0.0 - - - - - - -
01/12:30pm 29.2 S 7 8 1013.0 - 0.0 - - - - - - -
01/12:00pm 29.8 S 7 10 1013.4 - 0.0 - - - - - - -
01/11:30am 29.7 S 7 9 1013.7 - 0.0 - - - - - - -
01/11:00am 29.6 S 6 7 1014.0 - 0.0 - - - - - - -
01/10:30am 29.2 SSE 5 7 1014.1 - 0.0 - - - - - - -
01/10:00am 29.5 SSE 7 9 1014.6 - 0.0 - - - - - - -
01/09:30am 29.3 S 8 10 1014.8 - 0.0 - - - - - - -
01/09:00am 28.9 S 8 10 1014.7 - 0.2 - - - - - - -
01/08:30am 28.9 SSE 6 8 1014.4 - 0.2 - - - - - - -
01/08:00am 28.6 SSE 7 9 1014.1 - 0.2 - - - - - - -
01/07:30am 28.1 SSE 8 9 1013.9 - 0.2 - - - - - - -
01/07:00am 27.5 S 9 10 1013.7 - 0.2 - - - - - - -
01/06:30am 27.4 S 8 11 1013.5 - 0.2 - - - - - - -
01/06:00am 27.2 S 9 10 1013.2 - 0.2 - - - - - - -
01/05:30am 27.2 S 8 9 1013.1 - 0.2 - - - - - - -
01/05:00am 27.2 SSW 9 11 1012.9 - 0.2 - - - - - - -
01/04:30am 27.1 SSW 8 10 1012.5 - 0.2 - - - - - - -
01/04:00am 27.1 SSW 8 9 1012.6 - 0.2 - - - - - - -
01/03:30am 27.2 SSW 9 11 1012.8 - 0.2 - - - - - - -
01/03:00am 27.3 SSW 10 12 1012.8 - 0.2 - - - - - - -
01/02:30am 27.5 SSW 9 11 1012.8 - 0.2 - - - - - - -
01/02:00am 27.6 SSW 8 9 1012.9 - 0.2 - - - - - - -
01/01:30am 27.7 SSW 9 11 1013.2 - 0.2 - - - - - - -
01/01:00am 27.8 SSW 8 10 1013.2 - 0.2 - - - - - - -
01/12:30am 27.8 SSW 9 11 1013.4 - 0.2 - - - - - - -
01/12:00am 26.4 N 3 5 1013.7 - 0.2 - - - - - - -
 
Date/Time
WST
Temp

°C
Wind Pressure Rain
since 9am
mm
Weather Cloud Vis
km
Sea
Height
m
Swell
Dir
 
Speed
knots
Gust
knots
hPa Trend Height
m
Period
s
Dir
31/11:30pm 26.2 N 4 5 1013.7 - 0.2 - - - - - - -
31/11:00pm 26.2 N 5 6 1014.1 - 0.2 - - - - - - -
31/10:30pm 26.4 W 4 5 1014.2 - 0.2 - - - - - - -
31/10:00pm 26.4 W 5 6 1014.3 - 0.2 - - - - - - -
31/09:30pm 26.8 WSW 6 7 1014.1 - 0.2 - - - - - - -
31/09:00pm 26.9 WSW 6 7 1014.0 - 0.2 - - - - - - -
31/08:30pm 27.4 SW 9 10 1013.8 - 0.2 - - - - - - -
31/08:00pm 27.5 SW 10 12 1013.6 - 0.2 - - - - - - -
31/07:30pm 27.6 SW 9 11 1013.3 - 0.2 - - - - - - -
31/07:00pm 27.7 SW 10 12 1013.1 - 0.2 - - - - - - -
31/06:30pm 27.7 SW 12 14 1012.9 - 0.2 - - - - - - -
31/06:00pm 28.2 SW 11 14 1012.5 - 0.2 - - - - - - -
31/05:30pm 29.1 WSW 9 11 1012.4 - 0.2 - - - - - - -
31/05:00pm 29.7 WSW 9 13 1012.2 - 0.2 - - - - - - -
31/04:30pm 29.6 WSW 11 15 1012.1 - 0.2 - - - - - - -
31/04:00pm 30.4 WSW 11 15 1012.0 - 0.2 - - - - - - -
31/03:30pm 30.4 W 10 13 1011.8 - 0.2 - - - - - - -
31/03:00pm 31.1 WNW 10 14 1011.7 - 0.2 - - - - - - -
31/02:30pm 31.1 WNW 10 15 1011.6 - 0.2 - - - - - - -
31/02:00pm 31.4 W 12 17 1011.9 - 0.2 - - - - - - -
31/01:30pm 31.5 NW 10 16 1012.0 - 0.2 - - - - - - -
31/01:00pm 31.0 NW 11 15 1012.3 - 0.2 - - - - - - -
31/12:30pm 30.5 NW 9 11 1012.7 - 0.2 - - - - - - -
31/12:00pm 30.8 N 13 17 1012.9 - 0.2 - - - - - - -
31/11:30am 30.4 WNW 14 19 1013.4 - 0.2 - - - - - - -
31/11:00am 31.2 N 14 20 1013.8 - 0.2 - - - - - - -
31/10:30am 31.0 N 13 16 1014.0 - 0.0 - - - - - - -
31/10:00am 30.4 N 14 19 1013.8 - 0.0 - - - - - - -
31/09:30am 30.1 N 14 19 1013.9 - 0.0 - - - - - - -
31/09:00am 29.4 N 13 17 1014.1 - 20.8 - - - - - - -
31/08:30am 29.7 N 12 16 1013.9 - 20.8 - - - - - - -
31/08:00am 28.1 N 9 12 1013.5 - 20.8 - - - - - - -
31/07:30am 27.3 N 9 11 1013.0 - 20.8 - - - - - - -
31/07:00am 26.4 N 9 11 1012.6 - 20.8 - - - - - - -
31/06:30am 26.1 N 10 13 1012.4 - 20.8 - - - - - - -
31/06:00am 25.6 N 10 12 1012.2 - 20.8 - - - - - - -
31/05:30am 25.3 N 13 16 1011.9 - 20.8 - - - - - - -
31/05:00am 25.3 N 14 18 1011.5 - 20.8 - - - - - - -
31/04:30am 25.1 N 13 16 1011.4 - 20.8 - - - - - - -
31/04:00am 24.9 N 14 17 1011.6 - 20.8 - - - - - - -
31/03:30am 24.9 N 13 17 1011.6 - 20.8 - - - - - - -
31/03:00am 24.8 N 13 16 1011.7 - 20.8 - - - - - - -
31/02:30am 24.6 N 13 18 1011.8 - 20.8 - - - - - - -
31/02:00am 24.5 N 17 23 1011.8 - 20.8 - - - - - - -
31/01:30am 24.7 NNW 17 22 1012.4 - 20.8 - - - - - - -
31/01:00am 25.2 NNW 15 20 1012.6 - 20.8 - - - - - - -
31/12:30am 26.9 N 7 10 1012.4 - 16.2 - - - - - - -
31/12:00am 27.2 NNE 12 15 1012.5 - 15.2 - - - - - - -
 
Date/Time
WST
Temp

°C
Wind Pressure Rain
since 9am
mm
Weather Cloud Vis
km
Sea
Height
m
Swell
Dir
 
Speed
knots
Gust
knots
hPa Trend Height
m
Period
s
Dir
30/11:30pm 26.9 NE 7 9 1012.9 - 13.4 - - - - - - -
30/11:00pm 26.9 NNE 9 12 1013.4 - 12.2 - - - - - - -
30/10:30pm 27.4 ENE 10 12 1013.0 - 10.8 - - - - - - -
30/10:00pm 27.4 ENE 5 7 1013.6 - 10.2 - - - - - - -
30/09:30pm 27.6 NE 9 11 1013.5 - 10.0 - - - - - - -
30/09:00pm 26.7 NE 4 5 1013.3 - 9.8 - - - - - - -
30/08:30pm 26.3 NW 2 4 1013.2 - 9.8 - - - - - - -
30/08:00pm 26.3 NNW 4 7 1012.9 - 9.6 - - - - - - -
30/07:30pm 26.3 N 6 8 1012.7 - 8.6 - - - - - - -
30/07:00pm 26.3 N 7 8 1012.3 - 8.6 - - - - - - -
30/06:30pm 26.5 N 7 9 1012.2 - 8.6 - - - - - - -
30/06:00pm 26.8 N 10 12 1012.1 - 8.6 - - - - - - -
30/05:30pm 27.1 N 10 13 1011.9 - 8.6 - - - - - - -
30/05:00pm 26.8 N 14 17 1010.8 - 8.6 - - - - - - -
30/04:30pm 27.3 N 12 15 1011.0 - 8.6 - - - - - - -
30/04:00pm 26.6 NNE 14 17 1010.7 - 8.6 - - - - - - -
30/03:30pm 26.3 N 16 19 1010.6 - 8.6 - - - - - - -
30/03:00pm 25.6 N 11 16 1010.9 - 8.6 - - - - - - -
30/02:30pm 25.1 N 12 16 1011.2 - 8.4 - - - - - - -
30/02:00pm 25.2 N 13 17 1011.2 - 8.4 - - - - - - -
30/01:30pm 24.6 NNE 21 25 1011.0 - 8.4 - - - - - - -
30/01:00pm 23.6 NE 20 23 1011.3 - 8.4 - - - - - - -
30/12:52pm 24.4 NE 20 33 1011.4 - 8.2 - - - - - - -
30/12:43pm 23.7 N 22 33 1011.6 - 5.8 - - - - - - -
30/12:37pm 26.4 N 18 25 1011.5 - 1.8 - - - - - - -
30/12:30pm 27.4 NE 20 25 1011.4 - 1.2 - - - - - - -
30/12:28pm 27.5 NE 20 25 1011.4 - 0.8 - - - - - - -
30/12:00pm 27.9 E 17 19 1011.6 - 0.0 - - - - - - -
30/11:30am 28.1 ENE 17 20 1012.6 - 0.0 - - - - - - -
30/11:00am 28.7 ENE 16 18 1012.7 - 0.0 - - - - - - -
30/10:30am 28.7 E 15 18 1012.9 - 0.0 - - - - - - -
30/10:00am 28.5 E 13 14 1013.2 - 0.0 - - - - - - -
30/09:30am 27.5 E 10 12 1013.0 - 0.0 - - - - - - -
30/09:00am 26.9 E 12 15 1013.1 - 28.0 - - - - - - -
30/08:30am 25.7 E 12 15 1012.7 - 28.0 - - - - - - -
30/08:00am 25.3 E 18 24 1012.8 - 28.0 - - - - - - -
30/07:38am 24.5 ENE 21 32 1012.5 - 27.8 - - - - - - -
30/07:32am 25.1 ENE 25 32 1012.6 - 22.8 - - - - - - -
30/07:30am 25.8 E 20 32 1012.4 - 20.4 - - - - - - -
30/07:00am 26.8 ENE 17 19 1012.0 - 19.8 - - - - - - -
30/06:30am 26.8 ENE 14 16 1012.3 - 18.6 - - - - - - -
30/06:00am 26.4 ENE 17 21 1011.5 - 18.4 - - - - - - -
30/05:30am 26.1 NE 17 21 1011.4 - 17.0 - - - - - - -
30/05:00am 25.7 NNE 15 20 1011.0 - 15.4 - - - - - - -
30/04:35am 25.7 NNE 20 28 1010.9 - 14.6 - - - - - - -
30/04:30am 26.0 ENE 24 31 1010.8 - 14.4 - - - - - - -
30/04:25am 25.4 ENE 25 31 1010.8 - 13.8 - - - - - - -
30/04:00am 25.6 E 27 34 1010.3 - 11.4 - - - - - - -
30/03:55am 25.2 E 29 39 1010.4 - 11.4 - - - - - - -
30/03:50am 25.2 E 32 39 1010.5 - 11.0 - - - - - - -
30/03:49am 25.4 E 19 39 1010.4 - 10.8 - - - - - - -
30/03:41am 25.8 E 17 25 1010.2 - 10.4 - - - - - - -
30/03:30am 25.5 ENE 25 31 1010.8 - 9.0 - - - - - - -
30/03:04am 25.9 ENE 30 35 1011.2 - 4.2 - - - - - - -
30/03:03am 27.0 E 18 35 1011.1 - 4.2 - - - - - - -
30/03:00am 27.4 ESE 17 23 1010.5 - 4.2 - - - - - - -
30/02:30am 27.4 ESE 13 18 1010.6 - 3.0 - - - - - - -
30/02:00am 27.1 ESE 16 19 1011.0 - 1.4 - - - - - - -
30/01:31am 27.1 ESE 18 32 1011.6 - 0.2 - - - - - - -
30/01:30am 28.2 ESE 16 25 1011.6 - 0.2 - - - - - - -
30/01:00am 28.5 SE 13 15 1011.7 - 0.0 - - - - - - -
30/12:30am 29.2 E 13 15 1012.1 - 0.0 - - - - - - -
30/12:00am 28.9 ESE 12 15 1012.2 - 0.0 - - - - - - -
 
Date/Time
WST
Temp

°C
Wind Pressure Rain
since 9am
mm
Weather Cloud Vis
km
Sea
Height
m
Swell
Dir
 
Speed
knots
Gust
knots
hPa Trend Height
m
Period
s
Dir
29/11:30pm 29.2 E 9 11 1012.9 - 0.0 - - - - - - -
29/11:00pm 29.0 SE 10 12 1013.2 - 0.0 - - - - - - -
29/10:30pm 28.8 SE 13 15 1013.6 - 0.0 - - - - - - -
29/10:00pm 29.1 SE 12 14 1013.6 - 0.0 - - - - - - -
29/09:30pm 29.1 SE 13 17 1013.8 - 0.0 - - - - - - -
29/09:00pm 29.4 ESE 10 12 1013.6 - 0.0 - - - - - - -
29/08:30pm 29.5 E 11 12 1013.3 - 0.0 - - - - - - -
29/08:00pm 29.6 ESE 12 14 1012.9 - 0.0 - - - - - - -
29/07:30pm 30.0 E 11 13 1012.6 - 0.0 - - - - - - -
29/07:00pm 30.0 ENE 9 11 1012.1 - 0.0 - - - - - - -
29/06:30pm 30.0 E 9 11 1011.8 - 0.0 - - - - - - -
29/06:00pm 30.3 NE 11 13 1011.3 - 0.0 - - - - - - -
29/05:30pm 31.0 NNE 12 16 1010.7 - 0.0 - - - - - - -

Other Formats:

Comma delimited format used in spreadsheet applications
http://www.bom.gov.au/fwo/IDW60701/IDW60701.95304.axf

JavaScript Object Notation format (JSON) in row-major order
http://www.bom.gov.au/fwo/IDW60701/IDW60701.95304.json